Etusivu
METAR-TAF:

METAR-TAF

Lentoasemat :

Ndola, Sambia

Leveyspiiri: 12-59-50S, Pituuspiiri: 028-39-50E, korkeus merenpinnasta: 1270 m

METAR: puuttuu

Aika: 22:05 (20:05 UTC)

Sääennuste

Tämä raportti tehtiin 10 tuntia ja 5 minuuttia sitten, kello 10.00 UTC
Ennuste voimassa 22. päivästä klo 12 UTC - 23. päivään klo 18 UTC
Tuuli 5 kn kaakosta
Näkyvyys: 8000 m
savua
From 22. päivästä klo 1700 UTC
Tuuli 10 kn idästä
Näkyvyys 10 km tai enemmän
ei pilviä alle 1500 m:ssä eikä cumulonimbus-pilviä
Tulossa
23. päivästä klo 04 UTC - 23. päivään klo 06 UTC
Tuuli 5 kn idästä
Näkyvyys: 7000 m
savua
Tulossa
23. päivästä klo 11 UTC - 23. päivään klo 13 UTC
Tuuli 10 kn idästä/kaakosta puuskistuen 15 kn:hen

TAF: FLSK 221000Z 2212/2318 13005KT 8000 FU NSC FM221700 10010KT CAVOK BECMG 2304/2306 09005KT 7000 FU NSC BECMG 2311/2313 12010G15KT

Säähavainnot ja -ennusteet yli 4000 lentoasemalta (METAR- ja TAF-raportit).

Käytössä olevat sääasemat on merkitty karttaan keltaisilla ja punaisilla pisteillä.

Aseta hiiri pisteen päälle nähdäksesi sääaseman nimen.

Klikkaa sitten nähdäksesi säähavainnot ja -ennusteet.

Kartan vaihtaminen: klikkaa mustalla rastilla varustettuja vihreitä pisteitä, niin voit zoomata sisään; viivalla varustettua vihreää pistettä, niin voit zoomata ulos tai vihreitä nuolia, niin pääset viereisille kartoille.


METAR-TAF: